LGKZ/KZI METAR and TAF weather

Enter ICAO airport designator
Station Type Date Time Source
LGKZ METAR 2021/09/24 04:50 UTC NOAA

LGKZ 240450Z 00000KT CAVOK 06/M02 Q1020


Station Type Date Time Source
LGKZ Decoded METAR 2021/09/24 04:50 UTC NOAA

Kozani Airport , Greece (LGKZ) 40-18N 021-47E 627M
Sep 24, 2021 - 12:50 AM EDT / 2021.09.24 0450 UTC
Wind: Calm:0
Visibility: greater than 7 mile(s):0
Temperature: 42 F (6 C)
Dew Point: 28 F (-2 C)
Relative Humidity: 56%
Pressure (altimeter): 30.12 in. Hg (1020 hPa)
ob: LGKZ 240450Z 00000KT CAVOK 06/M02 Q1020
cycle: 5

Station Type Date Time Source
LGKZ TAF UTC NOAA

Error!

Example: see airport list